Time;durP1;ratioP1;P1;durP2;ratioP2;P2;SDS_P1;SDS_P2;PMS_P1;PMS_P2;Temp;Humidity;BMP_temperature;BMP_pressure;BME280_temperature;BME280_humidity;BME280_pressure;Samples;Min_cycle;Max_cycle;Signal;HPM_P1;HPM_P2
2022/03/25 00:02:17;;;;;;;0.30;0.30;;;;;;;11.35;49.57;103149.81;4975270;28;20030;-84
2022/03/25 00:04:43;;;;;;;0.63;0.63;;;;;;;11.30;50.38;103148.00;4975968;28;20513;-84
2022/03/25 00:07:09;;;;;;;0.45;0.45;;;;;;;11.28;49.77;103148.84;4974272;28;20031;-84
2022/03/25 00:09:35;;;;;;;0.10;0.10;;;;;;;11.24;50.64;103147.91;4975942;28;20391;-84
2022/03/25 00:12:03;;;;;;;0.65;0.65;;;;;;;11.22;50.14;103148.75;4974023;28;20027;-84
2022/03/25 00:14:30;;;;;;;0.10;0.10;;;;;;;11.19;50.60;103146.97;4971071;28;20031;-83
2022/03/25 00:16:56;;;;;;;0.85;0.85;;;;;;;11.17;51.11;103146.03;4967058;28;20034;-84
2022/03/25 00:19:23;;;;;;;0.00;0.00;;;;;;;11.15;51.88;103147.75;4968776;28;20031;-84
2022/03/25 00:21:49;;;;;;;0.10;0.10;;;;;;;11.17;51.62;103154.00;4968316;29;20070;-83
2022/03/25 00:24:15;;;;;;;0.10;0.10;;;;;;;11.16;51.35;103144.25;4970612;29;20027;-84
2022/03/25 00:26:41;;;;;;;0.20;0.20;;;;;;;11.19;50.75;103149.63;4968318;28;20043;-83
2022/03/25 00:29:07;;;;;;;1.33;1.10;;;;;;;11.15;51.35;103153.06;4967530;28;20106;-83
2022/03/25 00:31:33;;;;;;;0.10;0.10;;;;;;;11.16;52.42;103154.84;4969738;28;20039;-84
2022/03/25 00:33:59;;;;;;;0.50;0.50;;;;;;;11.15;52.46;103153.06;4970988;28;20039;-83
2022/03/25 00:36:26;;;;;;;2.28;1.45;;;;;;;11.13;51.29;103153.06;4969131;28;20043;-83
2022/03/25 00:38:52;;;;;;;0.10;0.10;;;;;;;11.11;51.72;103153.91;4969021;28;20027;-83
2022/03/25 00:41:19;;;;;;;0.32;0.32;;;;;;;11.07;52.54;103152.97;4967030;29;20031;-83
2022/03/25 00:43:46;;;;;;;0.22;0.22;;;;;;;11.07;52.35;103155.63;4970455;28;20062;-83
2022/03/25 00:46:22;;;;;;;2.63;1.33;;;;;;;11.12;51.52;103159.22;4969788;28;20445;-83
2022/03/25 00:48:48;;;;;;;1.50;1.50;;;;;;;11.11;52.22;103157.44;4968630;28;20047;-83
2022/03/25 00:51:14;;;;;;;0.40;0.40;;;;;;;11.11;52.61;103149.47;4970286;28;20035;-83
2022/03/25 00:53:40;;;;;;;0.10;0.10;;;;;;;11.11;52.05;103151.25;4970580;28;20058;-83
2022/03/25 00:56:07;;;;;;;0.43;0.43;;;;;;;11.11;53.06;103151.25;4970724;28;20038;-83
2022/03/25 00:58:34;;;;;;;0.10;0.10;;;;;;;11.11;53.52;103151.25;4968392;28;20032;-82
2022/03/25 01:01:00;;;;;;;0.82;0.82;;;;;;;11.09;54.15;103143.28;4969469;29;20027;-82
2022/03/25 01:03:59;;;;;;;0.50;0.50;;;;;;;11.12;53.41;103145.06;4969033;29;20049;-82
2022/03/25 01:06:25;;;;;;;1.45;1.10;;;;;;;11.05;53.37;103145.84;4997921;28;20054;-82
2022/03/25 01:08:52;;;;;;;1.40;1.30;;;;;;;11.03;53.12;103153.78;4969349;28;20035;-82
2022/03/25 01:11:18;;;;;;;0.30;0.30;;;;;;;11.02;53.13;103151.13;4969631;28;20035;-82
2022/03/25 01:13:44;;;;;;;1.38;1.27;;;;;;;10.97;52.35;103151.94;4970461;28;20127;-82
2022/03/25 01:16:10;;;;;;;0.20;0.20;;;;;;;10.92;54.11;103150.97;4966025;29;20031;-83
2022/03/25 01:18:37;;;;;;;1.65;1.55;;;;;;;10.90;53.03;103163.31;4969495;28;20035;-82
2022/03/25 01:21:03;;;;;;;0.25;0.25;;;;;;;10.84;52.62;103157.91;4971899;28;20035;-82
2022/03/25 01:23:29;;;;;;;0.80;0.80;;;;;;;10.81;52.77;103163.16;4974052;29;20074;-82
2022/03/25 01:25:55;;;;;;;1.13;1.13;;;;;;;10.76;54.37;103155.13;4970986;28;20039;-82
2022/03/25 01:28:23;;;;;;;1.90;1.17;;;;;;;10.72;53.58;103157.72;4970264;28;20043;-83
2022/03/25 01:30:49;;;;;;;0.40;0.40;;;;;;;10.66;54.52;103154.06;4967904;28;20027;-82
2022/03/25 01:33:15;;;;;;;0.25;0.25;;;;;;;10.60;53.91;103155.75;4969957;28;20418;-82
2022/03/25 01:35:42;;;;;;;0.80;0.80;;;;;;;10.57;54.08;103159.25;4970704;29;20079;-82
2022/03/25 01:38:08;;;;;;;0.10;0.10;;;;;;;10.53;53.82;103149.47;4968444;28;20046;-82
2022/03/25 01:40:35;;;;;;;1.05;0.82;;;;;;;10.50;53.66;103158.25;4965811;28;20044;-82
2022/03/25 01:43:01;;;;;;;0.20;0.20;;;;;;;10.50;54.42;103152.03;4970324;29;20027;-82
2022/03/25 01:45:37;;;;;;;1.25;1.10;;;;;;;10.49;54.34;103143.22;4970972;28;20031;-82
2022/03/25 01:48:08;;;;;;;0.10;0.10;;;;;;;10.42;54.46;103151.00;4968600;28;20495;-82
2022/03/25 01:50:34;;;;;;;0.32;0.32;;;;;;;10.37;54.97;103145.66;4969118;28;20031;-83
2022/03/25 01:53:01;;;;;;;0.43;0.43;;;;;;;10.35;55.94;103148.25;4957389;28;20023;-83
2022/03/25 01:55:35;;;;;;;0.17;0.17;;;;;;;10.35;54.64;103148.25;4954955;28;20464;-83
2022/03/25 01:58:01;;;;;;;0.20;0.20;;;;;;;10.32;55.23;103150.81;4958253;28;20239;-83
2022/03/25 02:00:29;;;;;;;0.10;0.10;;;;;;;10.31;54.66;103142.84;4956862;28;20027;-83
2022/03/25 02:02:55;;;;;;;0.20;0.20;;;;;;;10.31;55.22;103153.44;4951722;29;20062;-82
2022/03/25 02:05:21;;;;;;;0.55;0.52;;;;;;;10.28;55.94;103156.94;4968881;28;20107;-82
2022/03/25 02:07:48;;;;;;;0.10;0.10;;;;;;;10.23;58.53;103153.31;4969794;28;20031;-82
2022/03/25 02:10:14;;;;;;;0.85;0.85;;;;;;;10.24;55.23;103151.53;4969427;28;20076;-81
2022/03/25 02:12:41;;;;;;;0.45;0.45;;;;;;;10.19;56.66;103151.44;4963809;28;20011;-82
2022/03/25 02:15:08;;;;;;;0.30;0.30;;;;;;;10.18;56.54;103150.56;4967430;28;20142;-82
2022/03/25 02:17:34;;;;;;;0.25;0.25;;;;;;;10.18;56.07;103144.34;4969948;28;20371;-82
2022/03/25 02:20:07;;;;;;;0.03;0.03;;;;;;;10.16;56.09;103149.63;4965929;28;20069;-82
2022/03/25 02:22:34;;;;;;;0.20;0.20;;;;;;;10.15;56.11;103144.31;4970673;28;20039;-82
2022/03/25 02:25:02;;;;;;;0.47;0.47;;;;;;;10.14;57.05;103145.19;4969903;28;20062;-82
2022/03/25 02:27:28;;;;;;;0.73;0.73;;;;;;;10.13;55.48;103151.34;4965906;28;20039;-82
2022/03/25 02:29:54;;;;;;;1.30;1.30;;;;;;;10.09;57.24;103149.50;4967081;29;20043;-82
2022/03/25 02:32:21;;;;;;;0.20;0.20;;;;;;;10.06;56.54;103150.34;4970498;28;20036;-82
2022/03/25 02:34:47;;;;;;;0.10;0.10;;;;;;;10.04;55.79;103146.75;4965436;28;20043;-82
2022/03/25 02:37:14;;;;;;;0.17;0.17;;;;;;;10.01;56.04;103147.59;4971046;28;20035;-82
2022/03/25 02:39:40;;;;;;;3.13;1.42;;;;;;;9.99;55.36;103146.69;4971175;28;20039;-83
2022/03/25 02:42:08;;;;;;;1.15;1.15;;;;;;;9.96;55.67;103149.25;4971639;28;20035;-82
2022/03/25 02:44:34;;;;;;;1.60;1.50;;;;;;;9.91;58.22;103142.97;4971192;28;20035;-81
2022/03/25 02:47:04;;;;;;;2.40;1.85;;;;;;;9.92;56.17;103146.50;4968784;28;20035;-82
2022/03/25 02:49:37;;;;;;;0.77;0.77;;;;;;;9.90;57.82;103153.56;4970352;28;20042;-83
2022/03/25 02:52:03;;;;;;;;;;;;;;;10.01;56.44;103146.72;4970255;29;20035;-81
2022/03/25 02:54:29;;;;;;;3.95;1.17;;;;;;;9.85;56.31;103146.38;4971984;28;19914;-82
2022/03/25 02:56:55;;;;;;;0.60;0.60;;;;;;;9.82;56.22;103149.00;4970657;28;20050;-81
2022/03/25 02:59:21;;;;;;;0.30;0.30;;;;;;;9.81;56.44;103141.03;4971201;29;20041;-82
2022/03/25 03:01:47;;;;;;;0.20;0.20;;;;;;;9.80;56.43;103148.06;4971543;28;20029;-82
2022/03/25 03:04:13;;;;;;;1.95;1.85;;;;;;;9.78;58.22;103139.22;4971853;28;20035;-82
2022/03/25 03:06:39;;;;;;;0.45;0.45;;;;;;;9.72;57.87;103139.09;4971196;28;20042;-82
2022/03/25 03:09:05;;;;;;;0.90;0.82;;;;;;;9.68;58.10;103140.78;4971857;29;20058;-81
2022/03/25 03:11:32;;;;;;;0.13;0.13;;;;;;;9.64;57.55;103141.53;4972030;28;20182;-81
2022/03/25 03:13:59;;;;;;;0.45;0.45;;;;;;;9.62;56.73;103138.00;4972581;28;20035;-82
2022/03/25 03:16:25;;;;;;;0.55;0.55;;;;;;;9.60;57.64;103144.13;4971775;28;20032;-81
2022/03/25 03:18:51;;;;;;;0.75;0.73;;;;;;;9.59;59.26;103153.78;4969358;28;20114;-81
2022/03/25 03:21:17;;;;;;;0.10;0.10;;;;;;;9.59;59.52;103155.56;4972722;28;20038;-83
2022/03/25 03:23:44;;;;;;;0.32;0.32;;;;;;;9.57;58.50;103155.53;4968787;28;20015;-83
2022/03/25 03:26:11;;;;;;;0.25;0.25;;;;;;;9.57;58.45;103155.53;4963718;28;20031;-84
2022/03/25 03:28:37;;;;;;;0.10;0.10;;;;;;;9.57;57.86;103154.63;4961235;28;20081;-84
2022/03/25 03:31:04;;;;;;;0.10;0.10;;;;;;;9.55;58.36;103136.06;4960323;29;20039;-84
2022/03/25 03:33:30;;;;;;;0.45;0.45;;;;;;;9.56;59.03;103148.44;4959807;29;20185;-83
2022/03/25 03:35:56;;;;;;;0.10;0.10;;;;;;;9.54;58.15;103150.16;4960009;28;20116;-84
2022/03/25 03:38:22;;;;;;;1.35;1.30;;;;;;;9.53;59.38;103148.38;4960800;28;20110;-84
2022/03/25 03:40:49;;;;;;;2.05;1.95;;;;;;;9.54;60.12;103155.47;4959786;29;20099;-83
2022/03/25 03:43:15;;;;;;;0.20;0.20;;;;;;;9.55;59.42;103138.72;4958247;29;20107;-84
2022/03/25 03:45:41;;;;;;;0.20;0.20;;;;;;;9.55;59.18;103136.94;4961275;28;20023;-84
2022/03/25 03:48:08;;;;;;;0.40;0.40;;;;;;;9.55;58.03;103141.38;4969322;28;20031;-83
2022/03/25 03:50:34;;;;;;;0.20;0.20;;;;;;;9.53;59.77;103130.75;4970954;29;20091;-83
2022/03/25 03:53:00;;;;;;;0.15;0.15;;;;;;;9.52;57.37;103130.69;4972161;29;20087;-83
2022/03/25 03:55:26;;;;;;;0.45;0.45;;;;;;;9.49;57.40;103131.53;4973321;28;20066;-83
2022/03/25 03:57:52;;;;;;;1.15;1.05;;;;;;;9.47;57.74;103142.94;4970568;28;20047;-83
2022/03/25 04:00:20;;;;;;;0.47;0.47;;;;;;;9.44;57.47;103137.59;4962187;28;20035;-84
2022/03/25 04:02:46;;;;;;;0.77;0.77;;;;;;;9.41;58.53;103142.81;4959487;28;20031;-83
2022/03/25 04:05:13;;;;;;;0.10;0.10;;;;;;;9.38;58.74;103138.34;4960032;28;20027;-83
2022/03/25 04:07:41;;;;;;;0.20;0.20;;;;;;;9.36;58.48;103146.25;4959795;28;20036;-84
2022/03/25 04:10:07;;;;;;;2.47;1.02;;;;;;;9.33;58.56;103154.13;4962177;28;20092;-84
2022/03/25 04:12:33;;;;;;;0.38;0.38;;;;;;;9.31;58.47;103153.19;4961387;29;20406;-84
2022/03/25 04:15:00;;;;;;;4.43;0.82;;;;;;;9.27;60.03;103151.34;4961491;28;20019;-83
2022/03/25 04:17:26;;;;;;;0.15;0.15;;;;;;;9.25;58.97;103158.34;4960403;28;20084;-83
2022/03/25 04:19:52;;;;;;;0.10;0.10;;;;;;;9.23;59.11;103154.78;4961321;28;20073;-83
2022/03/25 04:22:18;;;;;;;0.20;0.20;;;;;;;9.18;59.79;103154.69;4958916;28;20035;-83
2022/03/25 04:24:44;;;;;;;0.22;0.22;;;;;;;9.16;59.79;103155.47;4957484;28;20053;-83
2022/03/25 04:27:10;;;;;;;1.17;1.13;;;;;;;9.14;59.01;103155.44;4952232;28;20031;-83
2022/03/25 04:29:36;;;;;;;0.77;0.77;;;;;;;9.15;58.41;103157.25;4959970;28;20039;-83
2022/03/25 04:32:03;;;;;;;1.50;1.33;;;;;;;9.14;58.73;103151.94;4960450;29;20050;-83
2022/03/25 04:34:29;;;;;;;0.28;0.28;;;;;;;9.14;57.69;103159.88;4959951;29;20036;-84
2022/03/25 04:36:55;;;;;;;0.73;0.43;;;;;;;9.12;59.06;103164.22;4960648;28;20494;-83
2022/03/25 04:39:21;;;;;;;0.20;0.20;;;;;;;9.09;59.80;103156.22;4960521;29;20045;-84
2022/03/25 04:41:47;;;;;;;0.82;0.82;;;;;;;9.08;58.96;103160.59;4957127;29;20031;-83
2022/03/25 04:44:14;;;;;;;0.90;0.90;;;;;;;9.07;58.42;103162.38;4972976;28;20076;-82
2022/03/25 04:46:40;;;;;;;0.73;0.73;;;;;;;9.09;58.75;103158.88;4969627;28;20058;-83
2022/03/25 04:49:07;;;;;;;0.10;0.10;;;;;;;9.09;59.02;103161.50;4963587;29;20059;-84
2022/03/25 04:51:34;;;;;;;0.30;0.30;;;;;;;9.10;58.40;103165.91;4962044;28;20031;-82
2022/03/25 04:54:00;;;;;;;0.10;0.10;;;;;;;9.07;59.59;103166.75;4960819;28;20034;-83
2022/03/25 04:56:26;;;;;;;0.20;0.20;;;;;;;9.04;59.18;103167.56;4962082;28;20084;-84
2022/03/25 04:58:52;;;;;;;1.33;1.27;;;;;;;9.02;58.17;103160.44;4962708;28;20039;-84
2022/03/25 05:01:18;;;;;;;0.65;0.65;;;;;;;9.00;57.94;103164.84;4962440;28;20087;-83
2022/03/25 05:03:44;;;;;;;1.15;1.15;;;;;;;8.99;58.10;103161.28;4962149;28;20027;-83
2022/03/25 05:06:10;;;;;;;0.10;0.10;;;;;;;8.96;57.85;103158.56;4962828;28;20037;-83
2022/03/25 05:08:36;;;;;;;0.20;0.20;;;;;;;8.93;58.25;103160.25;4958320;28;20031;-84
2022/03/25 05:11:02;;;;;;;0.52;0.52;;;;;;;8.90;58.17;103166.34;4962218;29;20118;-83
2022/03/25 05:13:28;;;;;;;0.13;0.13;;;;;;;8.87;59.02;103169.81;4961478;28;20039;-82
2022/03/25 05:15:54;;;;;;;4.78;1.23;;;;;;;8.86;58.36;103169.75;4962175;28;20137;-83
2022/03/25 05:18:23;;;;;;;0.85;0.85;;;;;;;8.83;58.32;103175.00;4961820;29;20027;-83
2022/03/25 05:20:49;;;;;;;0.50;0.50;;;;;;;8.80;58.92;103173.16;5038200;23;20055;-82
2022/03/25 05:23:16;;;;;;;1.67;1.58;;;;;;;8.78;59.59;103177.50;5090522;28;20063;-84
2022/03/25 05:25:42;;;;;;;0.10;0.10;;;;;;;8.78;59.21;103176.63;5087096;28;20032;-84
2022/03/25 05:28:08;;;;;;;0.10;0.10;;;;;;;8.77;60.51;103182.75;5091688;28;20068;-84
2022/03/25 05:30:35;;;;;;;0.10;0.10;;;;;;;8.79;60.04;103178.41;5091599;28;20032;-84
2022/03/25 05:33:01;;;;;;;0.43;0.43;;;;;;;8.78;59.72;103181.91;5064954;28;20024;-83
2022/03/25 05:35:29;;;;;;;0.20;0.20;;;;;;;8.80;61.31;103182.81;5069780;28;20056;-83
2022/03/25 05:37:56;;;;;;;0.15;0.15;;;;;;;8.81;59.68;103182.88;5066109;28;20033;-84
2022/03/25 05:40:25;;;;;;;1.27;1.23;;;;;;;8.80;58.54;103185.47;5058717;28;20091;-84
2022/03/25 05:42:51;;;;;;;1.88;0.75;;;;;;;8.80;59.68;103190.75;5064306;28;20032;-83
2022/03/25 05:45:19;;;;;;;5.75;1.13;;;;;;;8.82;59.44;103184.69;5067900;28;20040;-83
2022/03/25 05:47:45;;;;;;;0.90;0.90;;;;;;;8.83;59.28;103190.84;5062765;28;20384;-84
2022/03/25 05:50:12;;;;;;;0.10;0.10;;;;;;;8.84;59.48;103190.00;5073713;28;20115;-84
2022/03/25 05:52:40;;;;;;;0.45;0.45;;;;;;;8.85;59.31;103190.03;5066110;28;20029;-83
2022/03/25 05:55:08;;;;;;;0.28;0.28;;;;;;;8.85;58.75;103194.44;5064827;28;20025;-83
2022/03/25 05:57:34;;;;;;;0.75;0.75;;;;;;;8.84;60.07;103192.66;5065759;28;20487;-83
2022/03/25 06:00:02;;;;;;;0.57;0.57;;;;;;;8.88;59.59;103195.41;5068406;28;20036;-83
2022/03/25 06:02:28;;;;;;;0.35;0.35;;;;;;;8.93;59.19;103192.84;5068868;28;20031;-84
2022/03/25 06:04:55;;;;;;;0.25;0.25;;;;;;;8.96;59.67;103198.25;5064601;28;20024;-83
2022/03/25 06:07:22;;;;;;;0.10;0.10;;;;;;;8.99;58.84;103195.66;5070958;28;20438;-83
2022/03/25 06:09:48;;;;;;;0.10;0.10;;;;;;;9.00;59.17;103194.81;5074208;28;20082;-83
2022/03/25 06:12:14;;;;;;;0.75;0.75;;;;;;;9.01;59.48;103191.31;5066038;28;20044;-83
2022/03/25 06:14:41;;;;;;;3.70;0.50;;;;;;;9.00;60.05;103189.50;5066695;28;20107;-84
2022/03/25 06:17:07;;;;;;;0.10;0.10;;;;;;;9.00;58.53;103200.09;5070631;28;20032;-83
2022/03/25 06:19:33;;;;;;;0.10;0.10;;;;;;;9.03;59.03;103202.81;5066991;28;20036;-83
2022/03/25 06:21:59;;;;;;;0.10;0.10;;;;;;;9.04;60.30;103204.59;5067173;28;20110;-84
2022/03/25 06:24:26;;;;;;;0.85;0.85;;;;;;;9.07;59.43;103203.75;5066786;28;20041;-84
2022/03/25 06:26:52;;;;;;;0.30;0.30;;;;;;;9.09;60.30;103210.00;5070803;28;20116;-83
2022/03/25 06:29:19;;;;;;;1.58;1.48;;;;;;;9.12;61.68;103214.47;5074307;28;20237;-84
2022/03/25 06:31:46;;;;;;;0.50;0.50;;;;;;;9.19;60.81;103214.63;5071298;28;20032;-83
2022/03/25 06:34:12;;;;;;;0.73;0.73;;;;;;;9.26;62.68;103213.06;5067254;28;20033;-83
2022/03/25 06:36:38;;;;;;;1.35;1.25;;;;;;;9.32;62.58;103217.56;5063734;28;20111;-84
2022/03/25 06:39:05;;;;;;;0.75;0.75;;;;;;;9.37;62.20;103218.56;5066469;28;20282;-85
2022/03/25 06:41:31;;;;;;;1.67;1.58;;;;;;;9.41;62.59;103222.19;5071981;28;20510;-85
2022/03/25 06:43:57;;;;;;;1.10;1.10;;;;;;;9.47;61.97;103225.88;5061412;28;20098;-84
2022/03/25 06:46:23;;;;;;;0.32;0.32;;;;;;;9.51;63.63;103218.91;5064956;28;20027;-85
2022/03/25 06:48:49;;;;;;;1.45;1.35;;;;;;;9.56;61.43;103225.19;5061672;28;20052;-85
2022/03/25 06:51:16;;;;;;;1.15;1.15;;;;;;;9.61;60.99;103210.31;5063930;28;20056;-85
2022/03/25 06:53:42;;;;;;;0.80;0.50;;;;;;;9.66;61.70;103228.97;5067619;28;20496;-85
2022/03/25 06:56:09;;;;;;;0.30;0.30;;;;;;;9.70;61.52;103223.75;5067785;28;20078;-85
2022/03/25 06:58:37;;;;;;;1.27;1.27;;;;;;;9.70;60.47;103223.75;5063718;28;20697;-85
2022/03/25 07:01:04;;;;;;;2.15;2.05;;;;;;;9.76;60.95;103230.03;5064188;28;20063;-83
2022/03/25 07:03:30;;;;;;;0.10;0.10;;;;;;;9.76;61.82;103230.94;5060492;28;20044;-82
2022/03/25 07:06:00;;;;;;;1.05;1.05;;;;;;;9.81;60.73;103229.28;5061723;28;20033;-88
2022/03/25 07:08:28;;;;;;;1.33;1.10;;;;;;;9.84;60.96;103233.75;5068670;28;20072;-85
2022/03/25 07:10:56;;;;;;;2.50;1.55;;;;;;;9.83;62.68;103237.25;5054041;28;20025;-84
2022/03/25 07:13:22;;;;;;;0.20;0.20;;;;;;;9.88;61.55;103239.16;5061578;28;20499;-84
2022/03/25 07:15:48;;;;;;;2.20;2.08;;;;;;;9.92;61.27;103247.13;5066861;28;21369;-85
2022/03/25 07:18:15;;;;;;;2.05;1.85;;;;;;;9.96;61.33;103243.72;5069606;28;20292;-85
2022/03/25 07:20:41;;;;;;;0.40;0.40;;;;;;;10.00;61.68;103245.56;5056653;28;20047;-85
2022/03/25 07:23:07;;;;;;;0.10;0.10;;;;;;;10.03;61.88;103246.53;5057580;28;20033;-84
2022/03/25 07:25:33;;;;;;;2.05;1.48;;;;;;;10.07;62.23;103250.13;5064882;28;20114;-85
2022/03/25 07:27:59;;;;;;;0.25;0.25;;;;;;;10.09;61.83;103258.09;5071096;28;20093;-85
2022/03/25 07:30:25;;;;;;;0.60;0.60;;;;;;;10.13;63.11;103255.56;5065213;28;20033;-85
2022/03/25 07:32:51;;;;;;;0.77;0.77;;;;;;;10.17;61.63;103245.91;5066855;28;20037;-85
2022/03/25 07:35:18;;;;;;;0.50;0.50;;;;;;;10.24;61.90;103245.16;5071035;28;20036;-85
2022/03/25 07:37:45;;;;;;;2.42;2.33;;;;;;;10.29;61.17;103251.47;5069772;28;20024;-84
2022/03/25 07:40:13;;;;;;;0.47;0.47;;;;;;;10.35;61.69;103264.84;5062818;28;20090;-86
2022/03/25 07:42:41;;;;;;;0.35;0.35;;;;;;;10.35;62.76;103264.84;5068005;28;20028;-85
2022/03/25 07:45:10;;;;;;;1.80;1.65;;;;;;;10.42;62.11;103254.34;5066026;28;20036;-85
2022/03/25 07:47:40;;;;;;;2.83;2.67;;;;;;;10.51;62.13;103265.16;5071409;28;20504;-85
2022/03/25 07:50:09;;;;;;;0.40;0.40;;;;;;;10.53;61.60;103268.75;5080614;23;20029;-75
2022/03/25 07:52:35;;;;;;;0.65;0.65;;;;;;;10.58;62.79;103267.06;5089323;28;20044;-76
2022/03/25 07:55:03;;;;;;;1.75;1.73;;;;;;;10.64;61.99;103266.28;5088252;28;20461;-75
2022/03/25 07:57:29;;;;;;;2.13;1.98;;;;;;;10.71;61.84;103272.59;5081429;28;20502;-77
2022/03/25 07:59:55;;;;;;;1.05;1.05;;;;;;;10.75;63.19;103271.78;5074546;28;20461;-76
2022/03/25 08:02:21;;;;;;;10.68;1.60;;;;;;;10.81;63.03;103271.91;5062338;28;20067;-77
2022/03/25 08:04:47;;;;;;;0.93;0.93;;;;;;;10.85;62.37;103276.38;5069783;28;20117;-76
2022/03/25 08:07:14;;;;;;;0.77;0.77;;;;;;;10.87;63.46;103274.66;5061278;28;20040;-77
2022/03/25 08:09:40;;;;;;;0.68;0.68;;;;;;;10.98;62.76;103283.69;5063089;28;20047;-78
2022/03/25 08:12:07;;;;;;;2.80;2.60;;;;;;;11.05;62.36;103283.81;5067379;28;20044;-76
2022/03/25 08:14:34;;;;;;;1.95;1.35;;;;;;;11.13;62.10;103283.06;5072156;28;20032;-75
2022/03/25 08:17:00;;;;;;;1.33;1.23;;;;;;;11.24;61.30;103295.59;5068121;28;20056;-77
2022/03/25 08:19:27;;;;;;;2.80;1.60;;;;;;;11.27;61.59;103291.25;5063666;28;20033;-79
2022/03/25 08:21:53;;;;;;;1.00;1.00;;;;;;;11.33;60.99;103295.78;5073833;28;20039;-78
2022/03/25 08:29:51;;;;;;;0.68;0.68;;;;;;;11.60;60.68;103303.28;5070420;28;20040;-81
2022/03/25 08:32:17;;;;;;;0.95;0.95;;;;;;;11.80;60.83;103298.25;5071334;28;20275;-81
2022/03/25 08:34:44;;;;;;;1.65;1.50;;;;;;;12.00;60.02;103297.69;5083807;28;20032;-75
2022/03/25 08:37:10;;;;;;;1.75;1.65;;;;;;;12.12;60.29;103295.19;5066072;28;20016;-76
2022/03/25 08:39:36;;;;;;;7.95;0.95;;;;;;;12.21;59.69;103302.41;5066638;28;20037;-78
2022/03/25 08:42:02;;;;;;;3.55;2.70;;;;;;;12.26;58.90;103298.03;5059354;28;20033;-77
2022/03/25 08:44:29;;;;;;;2.00;1.80;;;;;;;12.26;59.56;103311.31;5066354;28;20060;-77
2022/03/25 08:46:55;;;;;;;0.30;0.30;;;;;;;12.38;59.48;103309.69;5069874;28;20032;-78
2022/03/25 08:49:23;;;;;;;1.00;1.00;;;;;;;12.43;59.23;103310.63;5067387;28;20884;-78
2022/03/25 08:51:49;;;;;;;1.35;1.13;;;;;;;12.51;58.89;103302.72;5068659;28;20036;-77
2022/03/25 08:54:15;;;;;;;0.60;0.60;;;;;;;12.58;58.59;103304.59;5069453;28;20029;-78
2022/03/25 08:56:42;;;;;;;4.00;2.95;;;;;;;12.68;58.53;103301.13;5069022;28;20036;-78
2022/03/25 08:59:09;;;;;;;0.60;0.60;;;;;;;12.82;58.25;103309.25;5067319;28;20108;-78
2022/03/25 09:01:35;;;;;;;10.23;2.28;;;;;;;12.91;57.32;103309.38;5062819;28;20021;-78
2022/03/25 09:04:01;;;;;;;1.05;1.05;;;;;;;13.01;56.99;103312.09;5064045;28;20036;-78
2022/03/25 09:06:27;;;;;;;4.78;3.45;;;;;;;13.08;55.99;103316.59;5071197;28;20044;-78
2022/03/25 09:08:53;;;;;;;3.60;2.72;;;;;;;13.22;56.44;103314.06;5071536;28;20033;-79
2022/03/25 09:11:20;;;;;;;0.93;0.93;;;;;;;13.36;56.17;103314.22;5070802;28;20035;-78
2022/03/25 09:13:46;;;;;;;1.73;1.60;;;;;;;13.48;55.94;103311.63;5075814;28;20050;-79
2022/03/25 09:16:13;;;;;;;0.90;0.90;;;;;;;13.62;56.42;103308.19;5066205;28;20504;-76
2022/03/25 09:18:39;;;;;;;2.25;2.15;;;;;;;13.68;55.40;103317.13;5059146;28;20033;-78
2022/03/25 09:21:05;;;;;;;29.33;4.03;;;;;;;13.79;54.64;103319.84;5060008;28;20516;-77
2022/03/25 09:23:31;;;;;;;1.67;1.33;;;;;;;13.88;54.79;103317.25;5062900;28;20521;-79
2022/03/25 09:25:58;;;;;;;1.63;1.58;;;;;;;13.96;54.68;103319.97;5060007;28;20501;-79
2022/03/25 09:28:24;;;;;;;1.83;0.73;;;;;;;14.01;53.67;103317.31;5070568;28;20512;-79
2022/03/25 09:30:50;;;;;;;0.65;0.65;;;;;;;14.13;54.07;103316.47;5067721;28;20074;-78
2022/03/25 09:33:16;;;;;;;0.50;0.50;;;;;;;14.20;52.92;103318.28;5066451;28;20028;-79
2022/03/25 09:35:42;;;;;;;0.75;0.63;;;;;;;14.24;50.99;103321.00;5072102;28;20044;-78
2022/03/25 09:38:09;;;;;;;1.30;1.20;;;;;;;14.37;51.65;103313.91;5063491;28;20491;-78
2022/03/25 09:40:35;;;;;;;6.32;1.25;;;;;;;14.52;51.94;103310.41;5064318;28;20096;-79
2022/03/25 09:43:01;;;;;;;1.50;1.40;;;;;;;14.60;48.63;103306.88;5063457;28;20029;-78
2022/03/25 09:45:30;;;;;;;2.08;1.98;;;;;;;14.75;49.61;103314.94;5061691;28;20058;-77
2022/03/25 09:47:56;;;;;;;1.23;1.23;;;;;;;14.86;50.68;103309.63;5061786;28;20029;-78
2022/03/25 09:50:24;;;;;;;0.88;0.88;;;;;;;15.01;50.29;103306.09;5063045;28;20040;-78
2022/03/25 09:52:52;;;;;;;0.55;0.55;;;;;;;15.14;50.21;103310.56;5061508;28;20029;-78
2022/03/25 09:55:19;;;;;;;1.10;1.10;;;;;;;15.23;49.64;103307.00;5069348;28;20036;-78
2022/03/25 09:57:46;;;;;;;0.30;0.30;;;;;;;15.26;48.84;103308.78;5066781;28;20033;-78
2022/03/25 10:00:16;;;;;;;0.63;0.63;;;;;;;15.32;49.21;103308.78;5058088;28;20021;-78
2022/03/25 10:02:43;;;;;;;0.65;0.63;;;;;;;15.35;48.14;103308.75;5061856;28;20500;-78
2022/03/25 10:05:19;;;;;;;0.52;0.52;;;;;;;15.43;47.37;103306.97;5061172;28;20066;-80
2022/03/25 10:07:47;;;;;;;0.13;0.13;;;;;;;15.49;48.13;103311.44;5064524;28;20024;-77
2022/03/25 10:15:38;;;;;;;0.43;0.43;;;;;;;15.81;45.42;103310.47;5108650;27;20396;-77
2022/03/25 10:18:08;;;;;;;0.55;0.55;;;;;;;15.91;46.42;103308.69;5105071;28;20032;-77
2022/03/25 10:20:37;;;;;;;3.88;2.22;;;;;;;15.91;43.82;103304.22;5106050;28;20044;-76
2022/03/25 10:28:41;;;;;;;2.53;2.33;;;;;;;16.33;44.43;103296.06;5061444;28;20149;-78
2022/03/25 10:33:50;;;;;;;5.38;3.55;;;;;;;16.45;42.31;103295.13;5065783;28;20397;-78
2022/03/25 10:36:20;;;;;;;2.58;2.38;;;;;;;16.50;43.00;103290.63;5067227;28;20028;-77
2022/03/25 10:41:43;;;;;;;4.85;2.05;;;;;;;16.58;39.92;103285.22;5070625;27;20394;-84
2022/03/25 10:44:10;;;;;;;0.95;0.95;;;;;;;16.66;43.32;103288.75;5076713;28;20028;-82
2022/03/25 10:46:42;;;;;;;2.42;2.33;;;;;;;16.69;41.09;103291.38;5082016;28;20029;-83
2022/03/25 10:49:11;;;;;;;3.85;2.53;;;;;;;16.71;40.89;103292.28;5070245;28;20041;-82
2022/03/25 10:51:41;;;;;;;2.65;2.45;;;;;;;16.79;42.37;103301.13;5050741;28;20036;-83
2022/03/25 10:54:09;;;;;;;0.30;0.30;;;;;;;16.82;41.95;103290.41;5051825;28;20029;-82
2022/03/25 10:56:54;;;;;;;1.05;1.05;;;;;;;16.96;42.14;103294.81;5050957;28;20386;-83
2022/03/25 11:02:03;;;;;;;1.65;1.55;;;;;;;17.04;41.93;103287.59;5110024;27;20414;-82
2022/03/25 11:04:30;;;;;;;0.20;0.20;;;;;;;17.07;41.81;103287.59;5117857;27;20290;-81
2022/03/25 11:06:57;;;;;;;0.88;0.88;;;;;;;17.18;41.86;103286.59;5115757;27;20040;-82
2022/03/25 11:09:27;;;;;;;1.17;1.13;;;;;;;17.28;41.67;103285.59;5108756;28;20050;-82
2022/03/25 11:11:54;;;;;;;0.95;0.95;;;;;;;17.31;41.32;103285.59;5115613;27;20043;-82
2022/03/25 11:14:20;;;;;;;0.68;0.68;;;;;;;17.39;41.08;103283.69;5123055;27;20091;-83
2022/03/25 11:16:55;;;;;;;0.93;0.90;;;;;;;17.45;40.78;103277.41;5105023;28;20058;-83
2022/03/25 11:19:23;;;;;;;2.10;1.30;;;;;;;17.55;41.45;103279.09;5102888;28;20092;-81
2022/03/25 11:21:51;;;;;;;1.42;1.33;;;;;;;17.60;41.29;103279.03;5111673;22;20048;-83
2022/03/25 11:27:17;;;;;;;4.18;1.65;;;;;;;17.75;40.72;103272.63;5074710;27;20406;-80
2022/03/25 11:29:45;;;;;;;1.08;1.08;;;;;;;17.81;40.91;103271.66;5075216;28;20041;-80
2022/03/25 11:32:14;;;;;;;1.52;1.42;;;;;;;17.95;41.15;103269.72;5069252;28;20554;-79
2022/03/25 11:34:45;;;;;;;1.75;1.45;;;;;;;18.07;40.63;103272.25;5080847;28;20028;-79
2022/03/25 11:42:55;;;;;;;2.08;1.98;;;;;;;18.26;38.36;103261.28;5097049;27;20408;-76
2022/03/25 11:58:36;;;;;;;1.98;1.55;;;;;;;18.70;36.86;103264.22;5050718;28;20387;-77
2022/03/25 12:01:16;;;;;;;1.55;1.45;;;;;;;18.78;37.26;103250.66;5048105;28;20264;-77
2022/03/25 12:03:49;;;;;;;0.47;0.43;;;;;;;18.76;37.62;103248.88;5044860;28;20055;-77
2022/03/25 12:06:17;;;;;;;0.65;0.65;;;;;;;18.79;38.27;103252.44;5046150;28;20036;-77
2022/03/25 12:09:06;;;;;;;2.60;1.77;;;;;;;18.98;37.67;103248.56;5049975;28;20429;-77
2022/03/25 12:11:55;;;;;;;0.40;0.40;;;;;;;19.11;37.75;103245.69;5037718;28;20108;-76
2022/03/25 12:17:09;;;;;;;0.82;0.82;;;;;;;19.24;37.04;103233.81;5110381;27;20387;-77
2022/03/25 12:27:42;;;;;;;3.25;2.33;;;;;;;19.47;36.56;103227.97;5106735;27;20411;-77